createdAt,value
2019-05-18T00:00:13.000Z,44.5
2019-05-18T00:01:19.000Z,44.5
2019-05-18T00:02:25.000Z,44.5
2019-05-18T00:03:31.000Z,44.6
2019-05-18T00:04:37.000Z,44.6
2019-05-18T00:05:44.000Z,44.5
2019-05-18T00:06:50.000Z,44.5
2019-05-18T00:07:56.000Z,44.6
2019-05-18T00:09:02.000Z,44.6
2019-05-18T00:10:08.000Z,44.6
2019-05-18T00:11:15.000Z,44.5
2019-05-18T00:12:21.000Z,44.6
2019-05-18T00:13:27.000Z,44.5
2019-05-18T00:14:33.000Z,44.5
2019-05-18T00:15:39.000Z,44.6
2019-05-18T00:16:45.000Z,44.6
2019-05-18T00:17:52.000Z,44.7
2019-05-18T00:18:58.000Z,44.6
2019-05-18T00:20:04.000Z,44.6
2019-05-18T00:21:10.000Z,44.6
2019-05-18T00:22:16.000Z,44.6
2019-05-18T00:23:22.000Z,44.6
2019-05-18T00:24:29.000Z,44.6
2019-05-18T00:25:35.000Z,44.5
2019-05-18T00:26:41.000Z,44.6
2019-05-18T00:27:47.000Z,44.7
2019-05-18T00:28:53.000Z,44.6
2019-05-18T00:30:00.000Z,44.7
2019-05-18T00:31:06.000Z,44.7
2019-05-18T00:32:12.000Z,44.6
2019-05-18T00:33:18.000Z,44.6
2019-05-18T00:34:24.000Z,44.6
2019-05-18T00:35:30.000Z,44.6
2019-05-18T00:36:37.000Z,44.6
2019-05-18T00:37:43.000Z,44.6
2019-05-18T00:38:49.000Z,44.6
2019-05-18T00:39:55.000Z,44.6
2019-05-18T00:41:01.000Z,44.6
2019-05-18T00:42:07.000Z,44.7
2019-05-18T00:43:14.000Z,44.6
2019-05-18T00:44:20.000Z,44.6
2019-05-18T00:45:26.000Z,44.5
2019-05-18T00:46:32.000Z,44.5
2019-05-18T00:47:38.000Z,44.5
2019-05-18T00:48:45.000Z,44.5
2019-05-18T00:49:51.000Z,44.5
2019-05-18T00:50:57.041Z,44.4
2019-05-18T00:52:03.000Z,44.5
2019-05-18T00:53:09.000Z,44.5
2019-05-18T00:54:15.000Z,44.5
2019-05-18T00:55:22.000Z,44.5
2019-05-18T00:56:28.000Z,44.5
2019-05-18T00:57:34.000Z,44.4
2019-05-18T00:58:40.000Z,44.5
2019-05-18T00:59:46.000Z,44.5
2019-05-18T01:00:53.000Z,44.5
2019-05-18T01:01:59.000Z,44.5
2019-05-18T01:03:05.000Z,44.5
2019-05-18T01:04:11.000Z,44.5
2019-05-18T01:05:17.000Z,44.4
2019-05-18T01:06:23.000Z,44.5
2019-05-18T01:07:30.000Z,44.5
2019-05-18T01:08:36.000Z,44.4
2019-05-18T01:09:42.000Z,44.4
2019-05-18T01:10:48.000Z,44.5
2019-05-18T01:11:54.000Z,44.5
2019-05-18T01:13:00.000Z,44.5
2019-05-18T01:14:07.000Z,44.4
2019-05-18T01:15:13.000Z,44.5
2019-05-18T01:16:19.000Z,44.6
2019-05-18T01:17:25.000Z,44.6
2019-05-18T01:18:31.000Z,44.6
2019-05-18T01:19:38.000Z,44.6
2019-05-18T01:20:44.000Z,44.5
2019-05-18T01:21:50.000Z,44.5
2019-05-18T01:22:56.000Z,44.5
2019-05-18T01:24:02.000Z,44.5
2019-05-18T01:25:08.000Z,44.5
2019-05-18T01:26:15.000Z,44.5
2019-05-18T01:27:21.000Z,44.5
2019-05-18T01:28:27.000Z,44.5
2019-05-18T01:29:33.000Z,44.5
2019-05-18T01:30:39.000Z,44.5
2019-05-18T01:31:45.000Z,44.5
2019-05-18T01:32:52.000Z,44.5
2019-05-18T01:33:58.000Z,44.5
2019-05-18T01:35:04.000Z,44.5
2019-05-18T01:36:10.000Z,44.5
2019-05-18T01:37:16.000Z,44.6
2019-05-18T01:38:23.000Z,44.6
2019-05-18T01:39:29.000Z,44.6
2019-05-18T01:40:35.000Z,44.6
2019-05-18T01:41:41.000Z,44.6
2019-05-18T01:42:47.000Z,44.6
2019-05-18T01:43:53.000Z,44.8
2019-05-18T01:45:00.000Z,44.7
2019-05-18T01:46:06.000Z,44.7
2019-05-18T01:47:12.000Z,44.8
2019-05-18T01:48:18.000Z,44.8
2019-05-18T01:49:24.000Z,44.7
2019-05-18T01:50:30.000Z,44.8
2019-05-18T01:51:37.000Z,44.9
2019-05-18T01:52:43.000Z,44.8
2019-05-18T01:53:49.000Z,44.9
2019-05-18T01:54:55.000Z,44.8
2019-05-18T01:56:01.000Z,44.9
2019-05-18T01:57:08.000Z,44.9
2019-05-18T01:58:14.000Z,44.9
2019-05-18T01:59:20.000Z,44.8
2019-05-18T02:00:26.000Z,44.9
2019-05-18T02:01:32.000Z,44.8
2019-05-18T02:02:38.000Z,44.8
2019-05-18T02:03:45.000Z,44.8
2019-05-18T02:04:51.000Z,44.8
2019-05-18T02:05:57.000Z,44.9
2019-05-18T02:07:03.000Z,44.9
2019-05-18T02:08:09.000Z,44.9
2019-05-18T02:09:15.000Z,44.8
2019-05-18T02:10:22.000Z,44.9
2019-05-18T02:11:28.000Z,44.8
2019-05-18T02:12:34.000Z,44.9
2019-05-18T02:13:40.000Z,45
2019-05-18T02:14:46.000Z,44.9
2019-05-18T02:15:53.000Z,45
2019-05-18T02:16:59.000Z,44.9
2019-05-18T02:18:05.000Z,45
2019-05-18T02:19:11.000Z,44.9
2019-05-18T02:20:17.000Z,45
2019-05-18T02:21:23.000Z,44.9
2019-05-18T02:22:30.000Z,45
2019-05-18T02:23:36.000Z,45
2019-05-18T02:24:42.000Z,44.9
2019-05-18T02:25:48.000Z,44.9
2019-05-18T02:26:54.000Z,45
2019-05-18T02:28:01.000Z,44.9
2019-05-18T02:29:07.000Z,45
2019-05-18T02:30:13.000Z,44.9
2019-05-18T02:31:19.000Z,45
2019-05-18T02:32:25.000Z,44.9
2019-05-18T02:33:31.000Z,44.8
2019-05-18T02:34:38.000Z,45
2019-05-18T02:35:44.000Z,44.9
2019-05-18T02:36:50.000Z,44.8
2019-05-18T02:37:56.000Z,44.9
2019-05-18T02:39:02.000Z,44.9
2019-05-18T02:40:08.000Z,44.9
2019-05-18T02:41:15.000Z,44.9
2019-05-18T02:42:21.000Z,44.8
2019-05-18T02:43:27.000Z,44.8
2019-05-18T02:44:33.000Z,44.8
2019-05-18T02:45:39.000Z,44.8
2019-05-18T02:46:46.000Z,44.7
2019-05-18T02:47:52.000Z,44.8
2019-05-18T02:48:58.000Z,44.7
2019-05-18T02:50:04.000Z,44.7
2019-05-18T02:51:10.000Z,44.7
2019-05-18T02:52:16.000Z,44.7
2019-05-18T02:53:23.000Z,44.7
2019-05-18T02:54:29.000Z,44.8
2019-05-18T02:55:35.000Z,44.7
2019-05-18T02:56:41.000Z,44.7
2019-05-18T02:57:47.000Z,44.7
2019-05-18T02:58:53.000Z,44.7
2019-05-18T03:00:00.000Z,44.7
2019-05-18T03:01:06.000Z,44.7
2019-05-18T03:02:12.000Z,44.7
2019-05-18T03:03:18.000Z,44.7
2019-05-18T03:04:24.000Z,44.7
2019-05-18T03:05:31.000Z,44.7
2019-05-18T03:06:37.000Z,44.7
2019-05-18T03:07:43.000Z,44.7
2019-05-18T03:08:49.000Z,44.7
2019-05-18T03:09:55.000Z,44.7
2019-05-18T03:11:01.000Z,44.7
2019-05-18T03:12:08.000Z,44.7
2019-05-18T03:13:14.000Z,44.8
2019-05-18T03:14:20.000Z,45
2019-05-18T03:15:26.000Z,44.8
2019-05-18T03:16:32.000Z,44.8
2019-05-18T03:17:38.000Z,44.8
2019-05-18T03:18:45.000Z,44.8
2019-05-18T03:19:51.000Z,44.8
2019-05-18T03:20:57.000Z,44.8
2019-05-18T03:22:03.000Z,44.8
2019-05-18T03:23:09.000Z,44.7
2019-05-18T03:24:16.000Z,44.8
2019-05-18T03:25:22.000Z,44.8
2019-05-18T03:26:28.000Z,44.8
2019-05-18T03:27:34.000Z,44.8
2019-05-18T03:28:40.000Z,44.7
2019-05-18T03:29:46.000Z,44.8
2019-05-18T03:30:53.000Z,44.8
2019-05-18T03:33:05.000Z,44.9
2019-05-18T03:34:11.000Z,44.8
2019-05-18T03:35:17.000Z,44.9
2019-05-18T03:36:24.000Z,44.9
2019-05-18T03:37:30.000Z,44.9
2019-05-18T03:38:36.000Z,44.9
2019-05-18T03:39:42.000Z,45
2019-05-18T03:40:48.000Z,44.9
2019-05-18T03:41:54.000Z,44.9
2019-05-18T03:43:01.000Z,44.9
2019-05-18T03:44:07.000Z,45
2019-05-18T03:45:13.000Z,44.9
2019-05-18T03:46:19.000Z,44.9
2019-05-18T03:47:25.000Z,45
2019-05-18T03:48:31.000Z,44.9
2019-05-18T03:49:38.000Z,45
2019-05-18T03:51:50.000Z,45
2019-05-18T03:52:56.000Z,45
2019-05-18T03:54:02.000Z,45
2019-05-18T03:55:09.000Z,45.1
2019-05-18T03:56:15.000Z,45.1
2019-05-18T03:57:21.000Z,45.1
2019-05-18T03:58:27.000Z,45.1
2019-05-18T03:59:33.000Z,45.1
2019-05-18T04:00:39.000Z,45.1
2019-05-18T04:01:46.000Z,45.1
2019-05-18T04:02:52.000Z,45.1
2019-05-18T04:03:58.000Z,45.1
2019-05-18T04:05:04.000Z,45.1
2019-05-18T04:06:10.000Z,45.2
2019-05-18T04:07:16.000Z,45.1
2019-05-18T04:08:23.000Z,45.2
2019-05-18T04:09:29.000Z,45.1
2019-05-18T04:10:35.000Z,45.1
2019-05-18T04:11:41.000Z,45.1
2019-05-18T04:12:47.000Z,45.2
2019-05-18T04:13:54.000Z,45.1
2019-05-18T04:15:00.000Z,45.2
2019-05-18T04:16:06.000Z,45.1
2019-05-18T04:17:12.000Z,45.1
2019-05-18T04:18:18.000Z,45.2
2019-05-18T04:19:24.000Z,45.2
2019-05-18T04:20:31.000Z,45.3
2019-05-18T04:21:37.000Z,45.1
2019-05-18T04:22:43.000Z,45.1
2019-05-18T04:23:49.000Z,45.1
2019-05-18T04:24:55.000Z,45.2
2019-05-18T04:26:01.000Z,45.2
2019-05-18T04:27:08.000Z,45.2
2019-05-18T04:28:14.000Z,45.2
2019-05-18T04:29:20.000Z,45.3
2019-05-18T04:30:26.000Z,45.2
2019-05-18T04:31:32.000Z,45.2
2019-05-18T04:32:39.000Z,45.3
2019-05-18T04:33:45.000Z,45.2
2019-05-18T04:34:51.000Z,45.2
2019-05-18T04:35:57.000Z,45.2
2019-05-18T04:37:03.000Z,45.2
2019-05-18T04:38:09.000Z,45.1
2019-05-18T04:39:16.000Z,45.1
2019-05-18T04:40:22.000Z,45
2019-05-18T04:41:28.000Z,45.1
2019-05-18T04:42:34.000Z,45
2019-05-18T04:43:40.000Z,45
2019-05-18T04:44:46.000Z,45
2019-05-18T04:45:53.000Z,45
2019-05-18T04:46:59.000Z,45
2019-05-18T04:48:05.000Z,45
2019-05-18T04:49:11.000Z,44.9
2019-05-18T04:50:17.000Z,45
2019-05-18T04:51:24.000Z,45
2019-05-18T04:52:30.000Z,45
2019-05-18T04:53:36.000Z,45
2019-05-18T04:54:42.000Z,44.9
2019-05-18T04:55:48.000Z,44.9
2019-05-18T04:56:54.000Z,45
2019-05-18T04:58:01.000Z,45
2019-05-18T04:59:07.000Z,45
2019-05-18T05:00:13.000Z,44.9
2019-05-18T05:01:19.000Z,45
2019-05-18T05:02:25.000Z,45
2019-05-18T05:03:31.000Z,45.1
2019-05-18T05:04:38.000Z,45
2019-05-18T05:05:44.000Z,44.9
2019-05-18T05:06:50.000Z,44.9
2019-05-18T05:07:56.000Z,45
2019-05-18T05:09:02.000Z,45
2019-05-18T05:10:09.000Z,45
2019-05-18T05:11:15.000Z,45.1
2019-05-18T05:12:21.000Z,45.1
2019-05-18T05:13:27.000Z,45.1
2019-05-18T05:14:33.000Z,45.1
2019-05-18T05:15:39.000Z,45
2019-05-18T05:16:46.000Z,45.3
2019-05-18T05:17:52.000Z,45.4
2019-05-18T05:18:58.000Z,45.2
2019-05-18T05:20:04.000Z,45.3
2019-05-18T05:21:10.000Z,45.3
2019-05-18T05:22:16.000Z,45.5
2019-05-18T05:23:23.000Z,45.4
2019-05-18T05:24:29.000Z,45.3
2019-05-18T05:25:35.000Z,45.3
2019-05-18T05:26:41.000Z,45.2
2019-05-18T05:27:47.000Z,45.2
2019-05-18T05:28:54.000Z,45.3
2019-05-18T05:30:00.000Z,45.2
2019-05-18T05:31:06.000Z,45.2
2019-05-18T05:32:12.000Z,45.3
2019-05-18T05:33:18.000Z,45.3
2019-05-18T05:34:24.000Z,45.3
2019-05-18T05:35:31.000Z,45.3
2019-05-18T05:36:37.000Z,45.3
2019-05-18T05:37:43.000Z,45.3
2019-05-18T05:38:49.000Z,45.3
2019-05-18T05:39:55.000Z,45.2
2019-05-18T05:41:01.000Z,45.3
2019-05-18T05:42:08.000Z,45.2
2019-05-18T05:43:14.000Z,45.4
2019-05-18T05:44:20.000Z,45.4
2019-05-18T05:45:26.000Z,45.3
2019-05-18T05:46:32.000Z,45.3
2019-05-18T05:47:38.000Z,45.4
2019-05-18T05:48:45.000Z,45.4
2019-05-18T05:49:51.000Z,45.4
2019-05-18T05:50:57.000Z,45.5
2019-05-18T05:52:03.000Z,45.5
2019-05-18T05:53:09.000Z,45.4
2019-05-18T05:54:16.000Z,45.4
2019-05-18T05:55:22.000Z,45.4
2019-05-18T05:56:28.000Z,45.4
2019-05-18T05:57:34.000Z,45.5
2019-05-18T05:58:40.000Z,45.5
2019-05-18T05:59:46.000Z,45.5
2019-05-18T06:00:53.000Z,45.4
2019-05-18T06:01:59.000Z,45.6
2019-05-18T06:03:05.000Z,45.5
2019-05-18T06:04:11.000Z,45.4
2019-05-18T06:05:17.000Z,45.4
2019-05-18T06:06:23.000Z,45.4
2019-05-18T06:07:30.000Z,45.4
2019-05-18T06:08:36.000Z,45.3
2019-05-18T06:09:42.000Z,45.3
2019-05-18T06:10:48.000Z,45.4
2019-05-18T06:11:54.000Z,45.4
2019-05-18T06:13:01.000Z,45.5
2019-05-18T06:14:07.000Z,45.4
2019-05-18T06:15:13.000Z,45.5
2019-05-18T06:16:19.000Z,45.4
2019-05-18T06:17:25.000Z,45.4
2019-05-18T06:18:31.000Z,45.5
2019-05-18T06:19:38.000Z,45.3
2019-05-18T06:20:44.000Z,45.3
2019-05-18T06:21:50.000Z,45.4
2019-05-18T06:22:56.000Z,45.3
2019-05-18T06:24:02.000Z,45.4
2019-05-18T06:25:08.000Z,45.5
2019-05-18T06:26:15.000Z,45.4
2019-05-18T06:27:21.000Z,45.3
2019-05-18T06:28:27.000Z,45.3
2019-05-18T06:29:33.000Z,45.3
2019-05-18T06:30:39.000Z,45.4
2019-05-18T06:31:45.000Z,45.3
2019-05-18T06:32:52.000Z,45.3
2019-05-18T06:33:58.000Z,45.4
2019-05-18T06:35:04.000Z,45.4
2019-05-18T06:36:10.000Z,45.3
2019-05-18T06:37:16.000Z,45.2
2019-05-18T06:38:23.000Z,45.1
2019-05-18T06:39:29.000Z,45.1
2019-05-18T06:40:35.000Z,45.1
2019-05-18T06:41:41.000Z,45
2019-05-18T06:42:47.000Z,44.9
2019-05-18T06:43:53.000Z,45
2019-05-18T06:45:00.000Z,44.9
2019-05-18T06:46:06.000Z,45
2019-05-18T06:47:12.000Z,45.1
2019-05-18T06:48:18.000Z,44.9
2019-05-18T06:49:24.000Z,44.9
2019-05-18T06:50:30.000Z,44.9
2019-05-18T06:51:37.000Z,44.8
2019-05-18T06:52:43.000Z,44.8
2019-05-18T06:53:49.000Z,44.7
2019-05-18T06:54:55.000Z,44.8
2019-05-18T06:56:01.000Z,44.6
2019-05-18T06:57:08.000Z,44.6
2019-05-18T06:58:14.000Z,44.5
2019-05-18T06:59:20.000Z,44.4
2019-05-18T07:00:26.000Z,44.4
2019-05-18T07:01:32.000Z,44.4
2019-05-18T07:02:38.000Z,44.4
2019-05-18T07:03:45.000Z,44.5
2019-05-18T07:04:51.000Z,44.5
2019-05-18T07:05:57.000Z,44.5
2019-05-18T07:07:03.000Z,44.5
2019-05-18T07:08:09.000Z,44.5
2019-05-18T07:09:15.000Z,44.4
2019-05-18T07:10:22.000Z,44.3
2019-05-18T07:11:28.000Z,44.4
2019-05-18T07:12:34.000Z,44.4
2019-05-18T07:13:40.000Z,44.3
2019-05-18T07:14:46.000Z,44.3
2019-05-18T07:15:53.000Z,44.3
2019-05-18T07:16:59.000Z,44.1
2019-05-18T07:18:05.000Z,44.3
2019-05-18T07:19:11.000Z,44
2019-05-18T07:20:17.000Z,44.2
2019-05-18T07:21:23.000Z,44.3
2019-05-18T07:22:30.000Z,44.3
2019-05-18T07:23:36.000Z,44.2
2019-05-18T07:24:42.000Z,44
2019-05-18T07:25:48.000Z,43.9
2019-05-18T07:26:54.000Z,44
2019-05-18T07:28:00.000Z,44
2019-05-18T07:29:07.000Z,43.9
2019-05-18T07:30:13.000Z,43.9
2019-05-18T07:31:19.000Z,43.9
2019-05-18T07:32:25.000Z,44.2
2019-05-18T07:33:31.000Z,43.9
2019-05-18T07:34:37.000Z,44
2019-05-18T07:35:44.000Z,43.8
2019-05-18T07:36:50.000Z,43.9
2019-05-18T07:37:56.000Z,44
2019-05-18T07:39:02.000Z,43.7
2019-05-18T07:40:08.000Z,43.9
2019-05-18T07:41:15.000Z,43.9
2019-05-18T07:42:21.000Z,43.8
2019-05-18T07:43:27.000Z,43.8
2019-05-18T07:44:33.000Z,44
2019-05-18T07:45:39.000Z,44.2
2019-05-18T07:46:45.000Z,44.1
2019-05-18T07:47:52.000Z,44.5
2019-05-18T07:48:58.000Z,44.2
2019-05-18T07:50:04.000Z,44.1
2019-05-18T07:51:10.000Z,44.1
2019-05-18T07:52:16.000Z,44.1
2019-05-18T07:53:22.000Z,43.8
2019-05-18T07:54:29.000Z,43.8
2019-05-18T07:55:35.000Z,43.7
2019-05-18T07:56:41.000Z,43.8
2019-05-18T07:57:47.000Z,43.5
2019-05-18T07:58:53.000Z,43.5
2019-05-18T08:00:00.000Z,43.5
2019-05-18T08:01:06.000Z,43.5
2019-05-18T08:02:12.000Z,43.4
2019-05-18T08:03:18.000Z,44
2019-05-18T08:04:24.000Z,43.7
2019-05-18T08:05:30.000Z,43.6
2019-05-18T08:06:37.000Z,43.4
2019-05-18T08:07:43.000Z,43.5
2019-05-18T08:08:49.000Z,43.4
2019-05-18T08:09:55.000Z,43.4
2019-05-18T08:11:01.000Z,43.5
2019-05-18T08:12:07.000Z,43.5
2019-05-18T08:13:14.000Z,43.5
2019-05-18T08:14:20.000Z,43.6
2019-05-18T08:15:26.000Z,43.6
2019-05-18T08:16:32.000Z,43.4
2019-05-18T08:17:38.000Z,43.5
2019-05-18T08:18:44.000Z,43.5
2019-05-18T08:19:51.000Z,43.5
2019-05-18T08:20:57.000Z,43.4
2019-05-18T08:22:03.000Z,43.5
2019-05-18T08:23:09.000Z,43.3
2019-05-18T08:24:15.000Z,43.3
2019-05-18T08:25:22.000Z,43.3
2019-05-18T08:26:28.000Z,43.3
2019-05-18T08:27:34.000Z,43.1
2019-05-18T08:28:40.000Z,43.1
2019-05-18T08:29:46.000Z,43.1
2019-05-18T08:30:52.000Z,43
2019-05-18T08:31:59.000Z,43
2019-05-18T08:33:05.000Z,43
2019-05-18T08:34:11.000Z,43.1
2019-05-18T08:35:17.000Z,43.1
2019-05-18T08:36:23.000Z,43.1
2019-05-18T08:37:29.000Z,43
2019-05-18T08:38:36.000Z,43
2019-05-18T08:39:42.000Z,43
2019-05-18T08:40:48.000Z,43
2019-05-18T08:41:54.000Z,43
2019-05-18T08:43:00.000Z,43
2019-05-18T08:44:07.000Z,42.9
2019-05-18T08:45:13.000Z,42.9
2019-05-18T08:46:19.000Z,42.9
2019-05-18T08:47:25.000Z,42.9
2019-05-18T08:48:31.000Z,42.9
2019-05-18T08:49:37.000Z,42.8
2019-05-18T08:50:44.000Z,42.9
2019-05-18T08:51:50.000Z,42.8
2019-05-18T08:52:56.000Z,42.9
2019-05-18T08:54:02.000Z,42.9
2019-05-18T08:55:08.000Z,42.8
2019-05-18T08:56:14.000Z,42.9
2019-05-18T08:57:21.000Z,42.9
2019-05-18T08:58:27.000Z,42.9
2019-05-18T08:59:33.000Z,42.9
2019-05-18T09:00:39.000Z,42.9
2019-05-18T09:01:45.000Z,42.9
2019-05-18T09:02:52.000Z,42.9
2019-05-18T09:03:58.000Z,42.9
2019-05-18T09:05:04.000Z,42.7
2019-05-18T09:06:10.000Z,42.6
2019-05-18T09:07:16.000Z,42.7
2019-05-18T09:08:22.000Z,43.1
2019-05-18T09:09:29.000Z,43
2019-05-18T09:10:35.000Z,42.8
2019-05-18T09:11:41.000Z,42.8
2019-05-18T09:12:47.000Z,42.9
2019-05-18T09:13:53.000Z,43
2019-05-18T09:14:59.000Z,43.5
2019-05-18T09:16:06.000Z,43.6
2019-05-18T09:17:12.000Z,43.6
2019-05-18T09:18:18.000Z,43.9
2019-05-18T09:19:24.000Z,43.7
2019-05-18T09:20:30.000Z,44.1
2019-05-18T09:21:36.000Z,44.1
2019-05-18T09:22:43.000Z,44
2019-05-18T09:23:49.000Z,44
2019-05-18T09:24:55.000Z,44.2
2019-05-18T09:26:01.000Z,44.2
2019-05-18T09:27:07.000Z,44.3
2019-05-18T09:28:14.000Z,44.2
2019-05-18T09:29:20.000Z,44.2
2019-05-18T09:30:26.000Z,44.2
2019-05-18T09:31:32.000Z,44.3
2019-05-18T09:32:38.000Z,44.4
2019-05-18T09:33:44.000Z,44.3
2019-05-18T09:34:51.000Z,44.2
2019-05-18T09:35:57.000Z,43.6
2019-05-18T09:37:03.000Z,43.9
2019-05-18T09:38:09.000Z,44.5
2019-05-18T09:39:15.000Z,44.3
2019-05-18T09:40:21.000Z,44.4
2019-05-18T09:41:28.000Z,44.6
2019-05-18T09:42:34.000Z,44.4
2019-05-18T09:43:40.000Z,44.3
2019-05-18T09:44:46.000Z,44
2019-05-18T09:45:52.000Z,44
2019-05-18T09:46:59.000Z,43.8
2019-05-18T09:48:05.000Z,43.8
2019-05-18T09:49:11.000Z,43.9
2019-05-18T09:50:17.000Z,44
2019-05-18T09:51:23.000Z,44.1
2019-05-18T09:52:29.000Z,44.3
2019-05-18T09:53:36.000Z,44.2
2019-05-18T09:54:42.000Z,44.2
2019-05-18T09:55:48.000Z,44.3
2019-05-18T09:56:54.000Z,44.3
2019-05-18T09:58:00.000Z,44.3
2019-05-18T09:59:06.000Z,44.3
2019-05-18T10:00:13.000Z,44.2
2019-05-18T10:01:19.000Z,44.3
2019-05-18T10:02:25.000Z,44.3
2019-05-18T10:03:31.000Z,44.2
2019-05-18T10:04:37.000Z,44.1
2019-05-18T10:05:44.000Z,44.2
2019-05-18T10:06:50.000Z,44.2
2019-05-18T10:07:56.000Z,44.3
2019-05-18T10:09:02.000Z,44.2
2019-05-18T10:10:08.000Z,44.2
2019-05-18T10:11:14.000Z,44.2
2019-05-18T10:12:21.000Z,44.1
2019-05-18T10:13:27.000Z,44.2
2019-05-18T10:14:33.000Z,46.5
2019-05-18T10:16:45.000Z,45
2019-05-18T10:17:51.000Z,45
2019-05-18T10:18:58.000Z,45.2
2019-05-18T10:20:04.000Z,46.4
2019-05-18T10:21:10.000Z,46.6
2019-05-18T10:22:16.000Z,46.5
2019-05-18T10:23:22.000Z,46.3
2019-05-18T10:24:28.000Z,46.1
2019-05-18T10:25:35.000Z,45.9
2019-05-18T10:26:41.000Z,45.8
2019-05-18T10:27:47.000Z,45.6
2019-05-18T10:28:53.000Z,45.6
2019-05-18T10:29:59.000Z,45.6
2019-05-18T10:31:06.000Z,45.2
2019-05-18T10:32:12.000Z,45.6
2019-05-18T10:33:18.000Z,45.2
2019-05-18T10:34:24.000Z,44.7
2019-05-18T10:35:30.000Z,44.7
2019-05-18T10:36:36.000Z,44.7
2019-05-18T10:37:43.000Z,44.8
2019-05-18T10:38:49.000Z,44.6
2019-05-18T10:39:55.000Z,44.4
2019-05-18T10:41:01.000Z,44.4
2019-05-18T10:42:07.000Z,44.4
2019-05-18T10:43:13.000Z,44.5
2019-05-18T10:44:20.000Z,44.4
2019-05-18T10:45:26.000Z,44.5
2019-05-18T10:46:32.000Z,44.4
2019-05-18T10:47:38.000Z,44.4
2019-05-18T10:48:44.000Z,44.4
2019-05-18T10:49:51.000Z,44.3
2019-05-18T10:50:57.000Z,44.3
2019-05-18T10:52:03.000Z,44.3
2019-05-18T10:53:09.000Z,44.3
2019-05-18T10:54:15.000Z,44.3
2019-05-18T10:55:21.000Z,44.3
2019-05-18T10:56:28.000Z,44.3
2019-05-18T10:57:34.000Z,44.3
2019-05-18T10:58:40.000Z,44.3
2019-05-18T10:59:46.000Z,44.4
2019-05-18T11:00:52.000Z,44.3
2019-05-18T11:01:58.000Z,44.2
2019-05-18T11:03:05.000Z,44.2
2019-05-18T11:04:11.000Z,44.2
2019-05-18T11:05:17.000Z,44.2
2019-05-18T11:06:23.000Z,44.1
2019-05-18T11:07:29.000Z,44.1
2019-05-18T11:08:36.000Z,44.1
2019-05-18T11:09:42.000Z,44.1
2019-05-18T11:10:48.000Z,44
2019-05-18T11:11:54.000Z,44
2019-05-18T11:13:00.000Z,44
2019-05-18T11:14:06.000Z,44
2019-05-18T11:15:13.000Z,43.9
2019-05-18T11:16:19.000Z,43.9
2019-05-18T11:17:25.000Z,43.9
2019-05-18T11:18:31.000Z,43.9
2019-05-18T11:19:37.000Z,43.9
2019-05-18T11:20:43.000Z,43.8
2019-05-18T11:21:50.000Z,43.8
2019-05-18T11:22:56.000Z,43.8
2019-05-18T11:24:02.000Z,43.8
2019-05-18T11:25:08.000Z,44.3
2019-05-18T11:26:14.000Z,44.1
2019-05-18T11:27:20.000Z,44.9
2019-05-18T11:29:33.000Z,45.5
2019-05-18T11:30:39.000Z,45.5
2019-05-18T11:31:45.000Z,45.4
2019-05-18T11:32:51.000Z,45.3
2019-05-18T11:33:58.000Z,45.3
2019-05-18T11:35:04.000Z,45.2
2019-05-18T11:36:10.000Z,45.1
2019-05-18T11:37:16.000Z,44.8
2019-05-18T11:38:22.000Z,44.7
2019-05-18T11:39:28.000Z,44.7
2019-05-18T11:40:35.000Z,44.6
2019-05-18T11:41:41.000Z,44.5
2019-05-18T11:42:47.000Z,44.4
2019-05-18T11:43:53.000Z,44.6
2019-05-18T11:44:59.000Z,44.9
2019-05-18T11:46:05.000Z,44.8
2019-05-18T11:47:12.000Z,44.6
2019-05-18T11:48:18.000Z,44.6
2019-05-18T11:49:24.000Z,44.6
2019-05-18T11:50:30.000Z,44.4
2019-05-18T11:51:36.000Z,44.1
2019-05-18T11:52:43.000Z,44.3
2019-05-18T11:53:49.000Z,44.2
2019-05-18T11:54:55.000Z,44.1
2019-05-18T11:56:01.000Z,44.3
2019-05-18T11:57:07.000Z,44.3
2019-05-18T11:58:13.000Z,44.1
2019-05-18T11:59:20.000Z,44.1
2019-05-18T12:00:26.000Z,44.1
2019-05-18T12:01:32.000Z,44
2019-05-18T12:02:38.000Z,44
2019-05-18T12:03:44.000Z,43.8
2019-05-18T12:04:50.000Z,43.8
2019-05-18T12:05:57.000Z,43.7
2019-05-18T12:07:03.000Z,43.7
2019-05-18T12:08:09.000Z,43.6
2019-05-18T12:09:15.000Z,43.6
2019-05-18T12:10:21.000Z,43.6
2019-05-18T12:11:27.000Z,43.6
2019-05-18T12:12:34.000Z,43.5
2019-05-18T12:13:40.000Z,43.5
2019-05-18T12:14:46.000Z,43.5
2019-05-18T12:15:52.000Z,43.5
2019-05-18T12:16:58.000Z,43.5
2019-05-18T12:18:05.000Z,43.5
2019-05-18T12:19:11.000Z,43.5
2019-05-18T12:20:17.000Z,43.8
2019-05-18T12:21:23.000Z,44
2019-05-18T12:22:29.000Z,44.1
2019-05-18T12:23:35.000Z,44
2019-05-18T12:24:42.000Z,45
2019-05-18T12:25:48.000Z,45.5
2019-05-18T12:26:54.000Z,45.3
2019-05-18T12:28:00.000Z,45.5
2019-05-18T12:29:06.000Z,45.5
2019-05-18T12:30:12.000Z,45
2019-05-18T12:31:19.000Z,45.4
2019-05-18T12:32:25.000Z,45
2019-05-18T12:33:31.000Z,45.4
2019-05-18T12:34:37.000Z,45.5
2019-05-18T12:35:43.000Z,46.5
2019-05-18T12:36:50.000Z,45.9
2019-05-18T12:37:56.000Z,45.7
2019-05-18T12:39:02.000Z,45.5
2019-05-18T12:40:08.000Z,45.4
2019-05-18T12:41:14.000Z,45.3
2019-05-18T12:42:20.000Z,45.3
2019-05-18T12:43:27.008Z,45.3
2019-05-18T12:44:33.000Z,45.3
2019-05-18T12:45:39.000Z,45.3
2019-05-18T12:46:45.000Z,45.4
2019-05-18T12:47:51.000Z,45.4
2019-05-18T12:48:57.000Z,45.4
2019-05-18T12:50:04.000Z,45.4
2019-05-18T12:51:10.000Z,45.4
2019-05-18T12:52:16.000Z,45.4
2019-05-18T12:53:22.000Z,45.4
2019-05-18T12:54:28.000Z,45.4
2019-05-18T12:55:35.000Z,45.3
2019-05-18T12:56:41.000Z,45.3
2019-05-18T12:57:47.000Z,45.3
2019-05-18T12:58:53.000Z,45.3
2019-05-18T12:59:59.000Z,45.4
2019-05-18T13:01:05.000Z,45.4
2019-05-18T13:02:12.000Z,45.5
2019-05-18T13:03:18.000Z,45.5
2019-05-18T13:04:24.000Z,45.6
2019-05-18T13:05:30.000Z,45.7
2019-05-18T13:06:36.000Z,45.6
2019-05-18T13:07:42.000Z,45.6
2019-05-18T13:08:49.000Z,45.4
2019-05-18T13:09:55.000Z,45.4
2019-05-18T13:11:01.000Z,45.4
2019-05-18T13:12:07.000Z,45.2
2019-05-18T13:13:13.000Z,45.1
2019-05-18T13:14:19.000Z,45.2
2019-05-18T13:15:26.000Z,45.1
2019-05-18T13:17:38.000Z,45
2019-05-18T13:18:44.000Z,45
2019-05-18T13:19:50.000Z,44.9
2019-05-18T13:20:57.000Z,44.9
2019-05-18T13:22:03.000Z,45
2019-05-18T13:23:09.000Z,44.9
2019-05-18T13:24:15.000Z,44.9
2019-05-18T13:25:21.000Z,45
2019-05-18T13:26:27.000Z,45
2019-05-18T13:27:34.000Z,44.9
2019-05-18T13:28:40.000Z,45
2019-05-18T13:29:46.000Z,45
2019-05-18T13:30:52.000Z,44.9
2019-05-18T13:31:58.000Z,44.9
2019-05-18T13:33:04.000Z,44.8
2019-05-18T13:34:11.000Z,45.1
2019-05-18T13:35:17.000Z,45.2
2019-05-18T13:36:23.000Z,45.5
2019-05-18T13:37:29.000Z,45.5
2019-05-18T13:38:35.000Z,45.5
2019-05-18T13:39:42.000Z,45.5
2019-05-18T13:40:48.000Z,45.4
2019-05-18T13:41:54.378Z,45.4
2019-05-18T13:43:00.000Z,45.4
2019-05-18T13:44:06.000Z,45.5
2019-05-18T13:45:12.000Z,45.5
2019-05-18T13:46:19.000Z,45.3
2019-05-18T13:47:25.000Z,45.4
2019-05-18T13:48:31.000Z,45.6
2019-05-18T13:49:37.000Z,45.4
2019-05-18T13:50:43.000Z,45.5
2019-05-18T13:51:49.000Z,45.5
2019-05-18T13:52:56.000Z,45.7
2019-05-18T13:54:02.000Z,45.7
2019-05-18T13:55:08.000Z,45.9
2019-05-18T13:56:14.000Z,45.9
2019-05-18T13:57:20.000Z,46
2019-05-18T13:58:27.000Z,46
2019-05-18T13:59:33.000Z,46
2019-05-18T14:00:39.000Z,46.1
2019-05-18T14:01:45.000Z,46.1
2019-05-18T14:02:51.000Z,46
2019-05-18T14:03:57.000Z,46.1
2019-05-18T14:05:04.000Z,46
2019-05-18T14:06:10.000Z,46.1
2019-05-18T14:07:16.000Z,45.9
2019-05-18T14:08:22.000Z,46
2019-05-18T14:09:28.000Z,46
2019-05-18T14:10:34.000Z,46
2019-05-18T14:11:41.000Z,46
2019-05-18T14:12:47.000Z,46
2019-05-18T14:13:53.000Z,45.9
2019-05-18T14:14:59.000Z,45.8
2019-05-18T14:16:05.000Z,45.9
2019-05-18T14:17:11.000Z,45.9
2019-05-18T14:18:18.000Z,45.8
2019-05-18T14:19:24.000Z,45.9
2019-05-18T14:20:30.000Z,46.1
2019-05-18T14:21:36.000Z,46.1
2019-05-18T14:22:42.000Z,46.5
2019-05-18T14:23:49.000Z,46.7
2019-05-18T14:24:55.000Z,46.6
2019-05-18T14:26:01.000Z,46.6
2019-05-18T14:27:07.000Z,46.5
2019-05-18T14:28:13.000Z,47
2019-05-18T14:29:19.000Z,46.9
2019-05-18T14:30:26.000Z,47
2019-05-18T14:31:32.000Z,46.8
2019-05-18T14:32:38.000Z,46.7
2019-05-18T14:33:44.000Z,46.6
2019-05-18T14:34:50.000Z,46.5
2019-05-18T14:35:56.000Z,46.3
2019-05-18T14:37:03.000Z,46.4
2019-05-18T14:38:09.000Z,46.5
2019-05-18T14:39:15.000Z,46.4
2019-05-18T14:40:21.000Z,46.6
2019-05-18T14:41:27.000Z,46.5
2019-05-18T14:42:34.000Z,46.6
2019-05-18T14:43:40.000Z,46.5
2019-05-18T14:44:46.000Z,46.4
2019-05-18T14:45:52.000Z,46.5
2019-05-18T14:46:58.000Z,46.5
2019-05-18T14:48:04.000Z,46.6
2019-05-18T14:49:11.000Z,46.6
2019-05-18T14:50:17.000Z,46.6
2019-05-18T14:51:23.000Z,46.7
2019-05-18T14:52:29.000Z,47
2019-05-18T14:53:35.000Z,46.8